sensor_id;sensor_type;location;lat;lon;timestamp;P1;durP1;ratioP1;P2;durP2;ratioP2
66384;SDS011;53426;55.872;37.462;2023-08-07T00:01:25;30.85;;;17.70;;
66384;SDS011;53426;55.872;37.462;2023-08-07T00:03:51;20.80;;;4.60;;
66384;SDS011;53426;55.872;37.462;2023-08-07T00:09:18;5.53;;;4.28;;
66384;SDS011;53426;55.872;37.462;2023-08-07T00:11:44;6.60;;;4.32;;
66384;SDS011;53426;55.872;37.462;2023-08-07T00:14:10;9.05;;;4.80;;
66384;SDS011;53426;55.872;37.462;2023-08-07T00:16:36;9.82;;;4.63;;
66384;SDS011;53426;55.872;37.462;2023-08-07T00:19:11;9.23;;;4.60;;
66384;SDS011;53426;55.872;37.462;2023-08-07T00:24:34;7.68;;;4.32;;
66384;SDS011;53426;55.872;37.462;2023-08-07T00:29:52;9.02;;;4.60;;
66384;SDS011;53426;55.872;37.462;2023-08-07T00:32:44;12.95;;;5.90;;
66384;SDS011;53426;55.872;37.462;2023-08-07T00:35:39;9.50;;;5.45;;
66384;SDS011;53426;55.872;37.462;2023-08-07T00:38:52;9.25;;;4.57;;
66384;SDS011;53426;55.872;37.462;2023-08-07T00:41:25;21.25;;;4.78;;
66384;SDS011;53426;55.872;37.462;2023-08-07T00:43:54;19.20;;;4.88;;
66384;SDS011;53426;55.872;37.462;2023-08-07T00:46:20;19.70;;;5.43;;
66384;SDS011;53426;55.872;37.462;2023-08-07T00:48:47;10.77;;;5.43;;
66384;SDS011;53426;55.872;37.462;2023-08-07T00:54:03;13.15;;;5.40;;
66384;SDS011;53426;55.872;37.462;2023-08-07T00:56:31;9.65;;;4.97;;
66384;SDS011;53426;55.872;37.462;2023-08-07T00:59:06;18.58;;;4.75;;
66384;SDS011;53426;55.872;37.462;2023-08-07T01:01:33;9.70;;;5.05;;
66384;SDS011;53426;55.872;37.462;2023-08-07T01:04:05;10.43;;;5.25;;
66384;SDS011;53426;55.872;37.462;2023-08-07T01:06:37;6.05;;;4.47;;
66384;SDS011;53426;55.872;37.462;2023-08-07T01:09:09;7.70;;;4.68;;
66384;SDS011;53426;55.872;37.462;2023-08-07T01:17:23;6.82;;;5.07;;
66384;SDS011;53426;55.872;37.462;2023-08-07T01:19:50;6.43;;;4.35;;
66384;SDS011;53426;55.872;37.462;2023-08-07T01:22:18;8.35;;;4.60;;
66384;SDS011;53426;55.872;37.462;2023-08-07T01:30:59;9.30;;;5.15;;
66384;SDS011;53426;55.872;37.462;2023-08-07T01:33:34;7.80;;;4.60;;
66384;SDS011;53426;55.872;37.462;2023-08-07T01:36:05;16.15;;;5.55;;
66384;SDS011;53426;55.872;37.462;2023-08-07T01:38:56;18.70;;;5.70;;
66384;SDS011;53426;55.872;37.462;2023-08-07T01:41:44;18.98;;;5.60;;
66384;SDS011;53426;55.872;37.462;2023-08-07T01:44:13;9.13;;;5.45;;
66384;SDS011;53426;55.872;37.462;2023-08-07T01:46:39;38.65;;;5.97;;
66384;SDS011;53426;55.872;37.462;2023-08-07T01:49:05;24.00;;;6.20;;
66384;SDS011;53426;55.872;37.462;2023-08-07T01:51:35;9.43;;;5.38;;
66384;SDS011;53426;55.872;37.462;2023-08-07T01:54:02;19.92;;;5.70;;
66384;SDS011;53426;55.872;37.462;2023-08-07T01:56:39;17.23;;;5.72;;
66384;SDS011;53426;55.872;37.462;2023-08-07T01:59:06;22.10;;;5.55;;
66384;SDS011;53426;55.872;37.462;2023-08-07T02:01:32;17.35;;;5.88;;
66384;SDS011;53426;55.872;37.462;2023-08-07T02:03:58;12.32;;;5.53;;
66384;SDS011;53426;55.872;37.462;2023-08-07T02:06:25;11.10;;;5.70;;
66384;SDS011;53426;55.872;37.462;2023-08-07T02:08:54;9.07;;;5.13;;
66384;SDS011;53426;55.872;37.462;2023-08-07T02:11:24;14.70;;;5.50;;
66384;SDS011;53426;55.872;37.462;2023-08-07T02:13:50;15.70;;;5.65;;
66384;SDS011;53426;55.872;37.462;2023-08-07T02:16:16;8.95;;;5.18;;
66384;SDS011;53426;55.872;37.462;2023-08-07T02:18:43;17.35;;;6.00;;
66384;SDS011;53426;55.872;37.462;2023-08-07T02:21:31;8.45;;;5.13;;
66384;SDS011;53426;55.872;37.462;2023-08-07T02:23:58;10.50;;;5.03;;
66384;SDS011;53426;55.872;37.462;2023-08-07T02:26:41;7.13;;;5.13;;
66384;SDS011;53426;55.872;37.462;2023-08-07T02:29:07;12.73;;;5.50;;
66384;SDS011;53426;55.872;37.462;2023-08-07T02:34:33;6.60;;;4.78;;
66384;SDS011;53426;55.872;37.462;2023-08-07T02:37:00;11.82;;;5.25;;
66384;SDS011;53426;55.872;37.462;2023-08-07T02:39:55;8.30;;;5.45;;
66384;SDS011;53426;55.872;37.462;2023-08-07T02:42:21;5.82;;;5.25;;
66384;SDS011;53426;55.872;37.462;2023-08-07T02:44:51;6.80;;;4.97;;
66384;SDS011;53426;55.872;37.462;2023-08-07T02:47:21;6.00;;;5.40;;
66384;SDS011;53426;55.872;37.462;2023-08-07T02:49:49;15.43;;;5.80;;
66384;SDS011;53426;55.872;37.462;2023-08-07T02:52:22;7.40;;;5.00;;
66384;SDS011;53426;55.872;37.462;2023-08-07T02:54:51;9.32;;;5.10;;
66384;SDS011;53426;55.872;37.462;2023-08-07T02:57:22;7.53;;;4.72;;
66384;SDS011;53426;55.872;37.462;2023-08-07T02:59:49;12.68;;;5.30;;
66384;SDS011;53426;55.872;37.462;2023-08-07T03:02:17;6.63;;;4.95;;
66384;SDS011;53426;55.872;37.462;2023-08-07T03:04:43;7.30;;;5.00;;
66384;SDS011;53426;55.872;37.462;2023-08-07T03:07:08;7.05;;;4.82;;
66384;SDS011;53426;55.872;37.462;2023-08-07T03:09:37;5.78;;;5.22;;
66384;SDS011;53426;55.872;37.462;2023-08-07T03:12:03;5.88;;;4.80;;
66384;SDS011;53426;55.872;37.462;2023-08-07T03:14:30;12.82;;;5.47;;
66384;SDS011;53426;55.872;37.462;2023-08-07T03:17:00;4.75;;;4.35;;
66384;SDS011;53426;55.872;37.462;2023-08-07T03:19:26;11.02;;;5.35;;
66384;SDS011;53426;55.872;37.462;2023-08-07T03:21:54;9.23;;;5.40;;
66384;SDS011;53426;55.872;37.462;2023-08-07T03:24:20;5.80;;;4.75;;
66384;SDS011;53426;55.872;37.462;2023-08-07T03:26:48;5.97;;;4.70;;
66384;SDS011;53426;55.872;37.462;2023-08-07T03:31:59;11.38;;;5.07;;
66384;SDS011;53426;55.872;37.462;2023-08-07T03:34:38;5.88;;;4.93;;
66384;SDS011;53426;55.872;37.462;2023-08-07T03:42:49;5.15;;;4.45;;
66384;SDS011;53426;55.872;37.462;2023-08-07T03:45:16;7.78;;;4.85;;
66384;SDS011;53426;55.872;37.462;2023-08-07T03:47:42;6.15;;;4.85;;
66384;SDS011;53426;55.872;37.462;2023-08-07T03:50:43;6.82;;;4.50;;
66384;SDS011;53426;55.872;37.462;2023-08-07T03:53:12;6.70;;;5.00;;
66384;SDS011;53426;55.872;37.462;2023-08-07T03:56:21;12.65;;;4.13;;
66384;SDS011;53426;55.872;37.462;2023-08-07T04:02:40;5.20;;;4.22;;
66384;SDS011;53426;55.872;37.462;2023-08-07T04:05:11;5.88;;;4.38;;
66384;SDS011;53426;55.872;37.462;2023-08-07T04:07:40;11.48;;;4.15;;
66384;SDS011;53426;55.872;37.462;2023-08-07T04:10:08;7.03;;;4.10;;
66384;SDS011;53426;55.872;37.462;2023-08-07T04:12:45;7.78;;;3.70;;
66384;SDS011;53426;55.872;37.462;2023-08-07T04:15:11;9.30;;;3.80;;
66384;SDS011;53426;55.872;37.462;2023-08-07T04:17:39;5.72;;;3.65;;
66384;SDS011;53426;55.872;37.462;2023-08-07T04:20:09;4.07;;;3.70;;
66384;SDS011;53426;55.872;37.462;2023-08-07T04:22:35;5.22;;;3.83;;
66384;SDS011;53426;55.872;37.462;2023-08-07T04:25:07;6.95;;;3.72;;
66384;SDS011;53426;55.872;37.462;2023-08-07T04:30:29;9.75;;;4.18;;
66384;SDS011;53426;55.872;37.462;2023-08-07T04:33:05;9.98;;;3.50;;
66384;SDS011;53426;55.872;37.462;2023-08-07T04:44:41;5.95;;;3.15;;
66384;SDS011;53426;55.872;37.462;2023-08-07T04:47:07;6.68;;;3.58;;
66384;SDS011;53426;55.872;37.462;2023-08-07T05:02:41;5.20;;;3.30;;
66384;SDS011;53426;55.872;37.462;2023-08-07T05:07:59;6.93;;;2.80;;
66384;SDS011;53426;55.872;37.462;2023-08-07T05:10:26;4.28;;;3.05;;
66384;SDS011;53426;55.872;37.462;2023-08-07T05:12:59;4.35;;;2.80;;
66384;SDS011;53426;55.872;37.462;2023-08-07T05:15:25;3.85;;;2.85;;
66384;SDS011;53426;55.872;37.462;2023-08-07T05:17:51;7.15;;;2.80;;
66384;SDS011;53426;55.872;37.462;2023-08-07T05:20:17;9.93;;;2.40;;
66384;SDS011;53426;55.872;37.462;2023-08-07T05:22:46;10.45;;;2.72;;
66384;SDS011;53426;55.872;37.462;2023-08-07T05:28:08;2.92;;;2.50;;
66384;SDS011;53426;55.872;37.462;2023-08-07T05:30:34;3.08;;;2.45;;
66384;SDS011;53426;55.872;37.462;2023-08-07T05:35:55;8.13;;;2.60;;
66384;SDS011;53426;55.872;37.462;2023-08-07T05:38:25;8.15;;;2.83;;
66384;SDS011;53426;55.872;37.462;2023-08-07T05:40:51;6.25;;;2.80;;
66384;SDS011;53426;55.872;37.462;2023-08-07T05:43:18;2.70;;;2.33;;
66384;SDS011;53426;55.872;37.462;2023-08-07T05:45:43;7.90;;;2.83;;
66384;SDS011;53426;55.872;37.462;2023-08-07T05:48:11;5.30;;;2.55;;
66384;SDS011;53426;55.872;37.462;2023-08-07T05:50:37;14.75;;;2.53;;
66384;SDS011;53426;55.872;37.462;2023-08-07T05:53:04;4.28;;;2.60;;
66384;SDS011;53426;55.872;37.462;2023-08-07T05:55:30;6.20;;;2.50;;
66384;SDS011;53426;55.872;37.462;2023-08-07T05:57:56;7.47;;;2.72;;
66384;SDS011;53426;55.872;37.462;2023-08-07T06:00:22;9.65;;;2.80;;
66384;SDS011;53426;55.872;37.462;2023-08-07T06:02:50;5.55;;;2.28;;
66384;SDS011;53426;55.872;37.462;2023-08-07T06:05:16;7.55;;;2.63;;
66384;SDS011;53426;55.872;37.462;2023-08-07T06:07:43;5.65;;;2.45;;
66384;SDS011;53426;55.872;37.462;2023-08-07T06:10:09;13.23;;;2.92;;
66384;SDS011;53426;55.872;37.462;2023-08-07T06:12:35;4.88;;;2.72;;
66384;SDS011;53426;55.872;37.462;2023-08-07T06:15:02;4.72;;;2.60;;
66384;SDS011;53426;55.872;37.462;2023-08-07T06:17:31;8.45;;;3.08;;
66384;SDS011;53426;55.872;37.462;2023-08-07T06:20:09;3.67;;;2.70;;
66384;SDS011;53426;55.872;37.462;2023-08-07T06:22:41;4.90;;;2.60;;
66384;SDS011;53426;55.872;37.462;2023-08-07T06:25:11;8.05;;;2.60;;
66384;SDS011;53426;55.872;37.462;2023-08-07T06:27:37;6.07;;;2.60;;
66384;SDS011;53426;55.872;37.462;2023-08-07T06:30:03;6.95;;;3.20;;
66384;SDS011;53426;55.872;37.462;2023-08-07T06:32:31;15.10;;;3.17;;
66384;SDS011;53426;55.872;37.462;2023-08-07T06:34:57;6.60;;;2.72;;
66384;SDS011;53426;55.872;37.462;2023-08-07T06:37:23;8.07;;;2.95;;
66384;SDS011;53426;55.872;37.462;2023-08-07T06:39:50;7.45;;;2.72;;
66384;SDS011;53426;55.872;37.462;2023-08-07T06:42:17;6.45;;;2.70;;
66384;SDS011;53426;55.872;37.462;2023-08-07T06:44:46;10.15;;;3.08;;
66384;SDS011;53426;55.872;37.462;2023-08-07T06:47:13;3.75;;;2.30;;
66384;SDS011;53426;55.872;37.462;2023-08-07T06:49:40;10.10;;;2.65;;
66384;SDS011;53426;55.872;37.462;2023-08-07T06:52:07;3.10;;;2.40;;
66384;SDS011;53426;55.872;37.462;2023-08-07T06:54:33;8.48;;;2.50;;
66384;SDS011;53426;55.872;37.462;2023-08-07T06:56:59;5.63;;;2.60;;
66384;SDS011;53426;55.872;37.462;2023-08-07T06:59:24;8.73;;;2.35;;
66384;SDS011;53426;55.872;37.462;2023-08-07T07:01:51;2.83;;;2.10;;
66384;SDS011;53426;55.872;37.462;2023-08-07T07:04:19;5.22;;;2.28;;
66384;SDS011;53426;55.872;37.462;2023-08-07T07:06:44;8.80;;;2.20;;
66384;SDS011;53426;55.872;37.462;2023-08-07T07:09:12;2.58;;;1.85;;
66384;SDS011;53426;55.872;37.462;2023-08-07T07:11:42;4.90;;;2.08;;
66384;SDS011;53426;55.872;37.462;2023-08-07T07:14:09;4.72;;;2.20;;
66384;SDS011;53426;55.872;37.462;2023-08-07T07:16:40;4.68;;;2.50;;
66384;SDS011;53426;55.872;37.462;2023-08-07T07:19:07;6.60;;;2.47;;
66384;SDS011;53426;55.872;37.462;2023-08-07T07:24:28;6.53;;;2.22;;
66384;SDS011;53426;55.872;37.462;2023-08-07T07:26:54;4.03;;;2.05;;
66384;SDS011;53426;55.872;37.462;2023-08-07T07:29:20;7.78;;;2.33;;
66384;SDS011;53426;55.872;37.462;2023-08-07T07:31:46;5.18;;;2.20;;
66384;SDS011;53426;55.872;37.462;2023-08-07T07:34:12;11.05;;;2.28;;
66384;SDS011;53426;55.872;37.462;2023-08-07T07:36:38;4.03;;;2.00;;
66384;SDS011;53426;55.872;37.462;2023-08-07T07:39:04;8.40;;;2.50;;
66384;SDS011;53426;55.872;37.462;2023-08-07T07:41:31;7.32;;;2.20;;
66384;SDS011;53426;55.872;37.462;2023-08-07T07:43:57;5.20;;;2.50;;
66384;SDS011;53426;55.872;37.462;2023-08-07T07:46:25;6.93;;;2.25;;
66384;SDS011;53426;55.872;37.462;2023-08-07T07:48:51;8.27;;;2.30;;
66384;SDS011;53426;55.872;37.462;2023-08-07T07:51:17;6.03;;;2.50;;
66384;SDS011;53426;55.872;37.462;2023-08-07T07:53:43;10.30;;;2.65;;
66384;SDS011;53426;55.872;37.462;2023-08-07T07:56:09;2.65;;;2.05;;
66384;SDS011;53426;55.872;37.462;2023-08-07T07:58:35;6.93;;;2.10;;
66384;SDS011;53426;55.872;37.462;2023-08-07T08:01:01;12.13;;;2.40;;
66384;SDS011;53426;55.872;37.462;2023-08-07T08:03:32;7.05;;;2.42;;
66384;SDS011;53426;55.872;37.462;2023-08-07T08:06:00;6.82;;;2.00;;
66384;SDS011;53426;55.872;37.462;2023-08-07T08:08:30;6.57;;;1.90;;
66384;SDS011;53426;55.872;37.462;2023-08-07T08:10:56;3.83;;;2.30;;
66384;SDS011;53426;55.872;37.462;2023-08-07T08:13:22;11.25;;;2.30;;
66384;SDS011;53426;55.872;37.462;2023-08-07T08:15:54;4.85;;;2.10;;
66384;SDS011;53426;55.872;37.462;2023-08-07T08:18:19;10.85;;;2.60;;
66384;SDS011;53426;55.872;37.462;2023-08-07T08:20:45;6.75;;;2.25;;
66384;SDS011;53426;55.872;37.462;2023-08-07T08:23:11;3.08;;;2.30;;
66384;SDS011;53426;55.872;37.462;2023-08-07T08:25:38;5.65;;;1.95;;
66384;SDS011;53426;55.872;37.462;2023-08-07T08:28:04;3.55;;;2.13;;
66384;SDS011;53426;55.872;37.462;2023-08-07T08:30:33;7.70;;;2.28;;
66384;SDS011;53426;55.872;37.462;2023-08-07T08:32:59;5.30;;;2.22;;
66384;SDS011;53426;55.872;37.462;2023-08-07T08:35:25;7.95;;;2.20;;
66384;SDS011;53426;55.872;37.462;2023-08-07T08:37:50;3.97;;;2.20;;
66384;SDS011;53426;55.872;37.462;2023-08-07T08:40:16;8.00;;;2.28;;
66384;SDS011;53426;55.872;37.462;2023-08-07T08:42:46;4.68;;;2.20;;
66384;SDS011;53426;55.872;37.462;2023-08-07T08:45:13;6.03;;;2.40;;
66384;SDS011;53426;55.872;37.462;2023-08-07T08:47:41;7.10;;;2.40;;
66384;SDS011;53426;55.872;37.462;2023-08-07T08:50:10;9.20;;;2.40;;
66384;SDS011;53426;55.872;37.462;2023-08-07T08:52:40;5.47;;;2.35;;
66384;SDS011;53426;55.872;37.462;2023-08-07T08:55:07;5.45;;;2.08;;
66384;SDS011;53426;55.872;37.462;2023-08-07T08:57:40;7.50;;;2.20;;
66384;SDS011;53426;55.872;37.462;2023-08-07T09:00:07;8.90;;;1.98;;
66384;SDS011;53426;55.872;37.462;2023-08-07T09:02:47;4.43;;;2.30;;
66384;SDS011;53426;55.872;37.462;2023-08-07T09:05:13;5.68;;;2.47;;
66384;SDS011;53426;55.872;37.462;2023-08-07T09:07:41;4.13;;;2.05;;
66384;SDS011;53426;55.872;37.462;2023-08-07T09:10:07;2.00;;;1.90;;
66384;SDS011;53426;55.872;37.462;2023-08-07T09:12:35;3.83;;;1.65;;
66384;SDS011;53426;55.872;37.462;2023-08-07T09:15:12;9.10;;;2.00;;
66384;SDS011;53426;55.872;37.462;2023-08-07T09:17:48;3.58;;;2.03;;
66384;SDS011;53426;55.872;37.462;2023-08-07T09:21:27;7.53;;;2.00;;
66384;SDS011;53426;55.872;37.462;2023-08-07T09:23:54;9.13;;;2.28;;
66384;SDS011;53426;55.872;37.462;2023-08-07T09:26:23;6.03;;;1.98;;
66384;SDS011;53426;55.872;37.462;2023-08-07T09:28:52;4.18;;;1.80;;
66384;SDS011;53426;55.872;37.462;2023-08-07T09:31:21;4.72;;;1.88;;
66384;SDS011;53426;55.872;37.462;2023-08-07T09:33:51;4.03;;;1.60;;
66384;SDS011;53426;55.872;37.462;2023-08-07T09:36:23;2.00;;;1.80;;
66384;SDS011;53426;55.872;37.462;2023-08-07T09:38:49;2.97;;;1.70;;
66384;SDS011;53426;55.872;37.462;2023-08-07T09:41:19;9.73;;;2.28;;
66384;SDS011;53426;55.872;37.462;2023-08-07T09:43:45;8.88;;;1.85;;
66384;SDS011;53426;55.872;37.462;2023-08-07T09:46:12;3.85;;;1.90;;
66384;SDS011;53426;55.872;37.462;2023-08-07T09:48:42;6.53;;;2.15;;
66384;SDS011;53426;55.872;37.462;2023-08-07T09:51:12;6.45;;;2.00;;
66384;SDS011;53426;55.872;37.462;2023-08-07T09:53:38;3.22;;;1.80;;
66384;SDS011;53426;55.872;37.462;2023-08-07T09:56:07;3.72;;;2.05;;
66384;SDS011;53426;55.872;37.462;2023-08-07T09:59:42;5.85;;;2.13;;
66384;SDS011;53426;55.872;37.462;2023-08-07T10:02:12;2.17;;;1.98;;
66384;SDS011;53426;55.872;37.462;2023-08-07T10:04:42;4.97;;;1.80;;
66384;SDS011;53426;55.872;37.462;2023-08-07T10:07:10;1.83;;;1.73;;
66384;SDS011;53426;55.872;37.462;2023-08-07T10:09:40;8.35;;;2.00;;
66384;SDS011;53426;55.872;37.462;2023-08-07T10:12:08;2.45;;;1.80;;
66384;SDS011;53426;55.872;37.462;2023-08-07T10:14:37;9.43;;;1.90;;
66384;SDS011;53426;55.872;37.462;2023-08-07T10:17:05;8.40;;;1.90;;
66384;SDS011;53426;55.872;37.462;2023-08-07T10:19:43;4.47;;;1.83;;
66384;SDS011;53426;55.872;37.462;2023-08-07T10:22:11;2.53;;;1.70;;
66384;SDS011;53426;55.872;37.462;2023-08-07T10:24:39;4.47;;;1.77;;
66384;SDS011;53426;55.872;37.462;2023-08-07T10:27:08;2.75;;;2.00;;
66384;SDS011;53426;55.872;37.462;2023-08-07T10:29:39;4.05;;;1.80;;
66384;SDS011;53426;55.872;37.462;2023-08-07T10:32:17;5.28;;;1.98;;
66384;SDS011;53426;55.872;37.462;2023-08-07T10:34:52;2.92;;;2.10;;
66384;SDS011;53426;55.872;37.462;2023-08-07T10:40:05;4.80;;;1.70;;
66384;SDS011;53426;55.872;37.462;2023-08-07T10:46:06;5.28;;;2.03;;
66384;SDS011;53426;55.872;37.462;2023-08-07T10:48:38;3.80;;;1.77;;
66384;SDS011;53426;55.872;37.462;2023-08-07T10:51:16;2.13;;;2.00;;
66384;SDS011;53426;55.872;37.462;2023-08-07T10:53:47;6.30;;;2.03;;
66384;SDS011;53426;55.872;37.462;2023-08-07T10:56:16;6.88;;;1.90;;
66384;SDS011;53426;55.872;37.462;2023-08-07T10:59:10;3.17;;;2.00;;
66384;SDS011;53426;55.872;37.462;2023-08-07T11:04:05;4.82;;;1.90;;
66384;SDS011;53426;55.872;37.462;2023-08-07T11:06:34;3.05;;;1.90;;
66384;SDS011;53426;55.872;37.462;2023-08-07T11:09:02;6.97;;;1.70;;
66384;SDS011;53426;55.872;37.462;2023-08-07T11:11:46;2.53;;;1.92;;
66384;SDS011;53426;55.872;37.462;2023-08-07T11:14:14;2.35;;;2.15;;
66384;SDS011;53426;55.872;37.462;2023-08-07T11:16:42;5.22;;;2.35;;
66384;SDS011;53426;55.872;37.462;2023-08-07T11:19:09;6.03;;;1.95;;
66384;SDS011;53426;55.872;37.462;2023-08-07T11:21:38;2.03;;;1.90;;
66384;SDS011;53426;55.872;37.462;2023-08-07T11:24:06;6.15;;;2.13;;
66384;SDS011;53426;55.872;37.462;2023-08-07T11:26:32;2.75;;;2.10;;
66384;SDS011;53426;55.872;37.462;2023-08-07T11:28:58;6.25;;;2.45;;
66384;SDS011;53426;55.872;37.462;2023-08-07T11:31:24;5.45;;;2.40;;
66384;SDS011;53426;55.872;37.462;2023-08-07T11:33:51;5.00;;;2.00;;
66384;SDS011;53426;55.872;37.462;2023-08-07T11:36:17;3.83;;;1.92;;
66384;SDS011;53426;55.872;37.462;2023-08-07T11:38:44;2.75;;;2.17;;
66384;SDS011;53426;55.872;37.462;2023-08-07T11:41:11;10.60;;;2.38;;
66384;SDS011;53426;55.872;37.462;2023-08-07T11:43:39;4.30;;;2.20;;
66384;SDS011;53426;55.872;37.462;2023-08-07T11:46:06;5.30;;;2.05;;
66384;SDS011;53426;55.872;37.462;2023-08-07T11:48:34;6.55;;;2.15;;
66384;SDS011;53426;55.872;37.462;2023-08-07T11:51:02;5.68;;;2.03;;
66384;SDS011;53426;55.872;37.462;2023-08-07T11:53:30;3.05;;;2.28;;
66384;SDS011;53426;55.872;37.462;2023-08-07T11:58:24;3.90;;;2.20;;
66384;SDS011;53426;55.872;37.462;2023-08-07T12:00:52;6.50;;;2.40;;
66384;SDS011;53426;55.872;37.462;2023-08-07T12:03:26;3.30;;;2.20;;
66384;SDS011;53426;55.872;37.462;2023-08-07T12:05:57;5.10;;;3.10;;
66384;SDS011;53426;55.872;37.462;2023-08-07T12:08:34;5.50;;;2.60;;
66384;SDS011;53426;55.872;37.462;2023-08-07T12:11:04;6.18;;;2.22;;
66384;SDS011;53426;55.872;37.462;2023-08-07T12:13:41;6.47;;;3.80;;
66384;SDS011;53426;55.872;37.462;2023-08-07T12:16:08;2.65;;;2.45;;
66384;SDS011;53426;55.872;37.462;2023-08-07T12:18:35;5.55;;;2.33;;
66384;SDS011;53426;55.872;37.462;2023-08-07T12:21:04;7.30;;;5.00;;
66384;SDS011;53426;55.872;37.462;2023-08-07T12:23:33;6.00;;;2.53;;
66384;SDS011;53426;55.872;37.462;2023-08-07T12:26:02;2.40;;;2.10;;
66384;SDS011;53426;55.872;37.462;2023-08-07T12:28:29;3.60;;;2.10;;
66384;SDS011;53426;55.872;37.462;2023-08-07T12:30:56;2.35;;;2.15;;
66384;SDS011;53426;55.872;37.462;2023-08-07T12:33:22;5.60;;;2.53;;
66384;SDS011;53426;55.872;37.462;2023-08-07T12:35:48;6.93;;;2.30;;
66384;SDS011;53426;55.872;37.462;2023-08-07T12:38:14;5.32;;;2.38;;
66384;SDS011;53426;55.872;37.462;2023-08-07T12:40:40;3.42;;;2.30;;
66384;SDS011;53426;55.872;37.462;2023-08-07T12:43:07;11.93;;;2.30;;
66384;SDS011;53426;55.872;37.462;2023-08-07T12:45:33;10.20;;;2.47;;
66384;SDS011;53426;55.872;37.462;2023-08-07T12:47:59;5.18;;;2.22;;
66384;SDS011;53426;55.872;37.462;2023-08-07T12:50:26;5.68;;;2.20;;
66384;SDS011;53426;55.872;37.462;2023-08-07T12:52:53;9.68;;;2.60;;
66384;SDS011;53426;55.872;37.462;2023-08-07T12:55:19;3.70;;;2.20;;
66384;SDS011;53426;55.872;37.462;2023-08-07T12:57:45;7.15;;;2.30;;
66384;SDS011;53426;55.872;37.462;2023-08-07T13:00:11;10.77;;;2.83;;
66384;SDS011;53426;55.872;37.462;2023-08-07T13:02:47;5.40;;;2.22;;
66384;SDS011;53426;55.872;37.462;2023-08-07T13:05:14;7.65;;;2.40;;
66384;SDS011;53426;55.872;37.462;2023-08-07T13:07:42;6.70;;;2.40;;
66384;SDS011;53426;55.872;37.462;2023-08-07T13:10:10;6.55;;;2.40;;
66384;SDS011;53426;55.872;37.462;2023-08-07T13:12:40;2.45;;;2.28;;
66384;SDS011;53426;55.872;37.462;2023-08-07T13:15:07;8.05;;;2.42;;
66384;SDS011;53426;55.872;37.462;2023-08-07T13:17:35;4.05;;;2.40;;
66384;SDS011;53426;55.872;37.462;2023-08-07T13:20:02;6.22;;;2.58;;
66384;SDS011;53426;55.872;37.462;2023-08-07T13:22:36;5.35;;;2.50;;
66384;SDS011;53426;55.872;37.462;2023-08-07T13:25:03;8.05;;;2.47;;
66384;SDS011;53426;55.872;37.462;2023-08-07T13:27:32;4.75;;;2.47;;
66384;SDS011;53426;55.872;37.462;2023-08-07T13:30:01;7.35;;;2.70;;
66384;SDS011;53426;55.872;37.462;2023-08-07T13:32:35;2.53;;;2.33;;
66384;SDS011;53426;55.872;37.462;2023-08-07T13:35:03;4.57;;;2.42;;
66384;SDS011;53426;55.872;37.462;2023-08-07T13:37:32;5.30;;;2.15;;
66384;SDS011;53426;55.872;37.462;2023-08-07T13:40:00;5.50;;;2.38;;
66384;SDS011;53426;55.872;37.462;2023-08-07T13:42:26;4.78;;;2.33;;
66384;SDS011;53426;55.872;37.462;2023-08-07T13:44:54;4.55;;;2.10;;
66384;SDS011;53426;55.872;37.462;2023-08-07T13:47:21;8.30;;;2.92;;
66384;SDS011;53426;55.872;37.462;2023-08-07T13:49:47;2.45;;;2.25;;
66384;SDS011;53426;55.872;37.462;2023-08-07T13:52:13;4.63;;;2.35;;
66384;SDS011;53426;55.872;37.462;2023-08-07T13:54:39;12.95;;;2.60;;
66384;SDS011;53426;55.872;37.462;2023-08-07T13:57:05;9.45;;;2.35;;
66384;SDS011;53426;55.872;37.462;2023-08-07T13:59:32;5.53;;;2.38;;
66384;SDS011;53426;55.872;37.462;2023-08-07T14:01:57;2.60;;;2.30;;
66384;SDS011;53426;55.872;37.462;2023-08-07T14:04:25;5.97;;;2.72;;
66384;SDS011;53426;55.872;37.462;2023-08-07T14:06:51;5.38;;;3.00;;
66384;SDS011;53426;55.872;37.462;2023-08-07T14:09:17;3.88;;;2.13;;
66384;SDS011;53426;55.872;37.462;2023-08-07T14:11:48;5.47;;;2.38;;
66384;SDS011;53426;55.872;37.462;2023-08-07T14:14:16;3.05;;;2.28;;
66384;SDS011;53426;55.872;37.462;2023-08-07T14:16:43;5.25;;;2.28;;
66384;SDS011;53426;55.872;37.462;2023-08-07T14:19:09;6.80;;;2.78;;
66384;SDS011;53426;55.872;37.462;2023-08-07T14:21:35;3.60;;;2.13;;
66384;SDS011;53426;55.872;37.462;2023-08-07T14:24:01;6.65;;;2.10;;
66384;SDS011;53426;55.872;37.462;2023-08-07T14:26:27;2.85;;;2.33;;
66384;SDS011;53426;55.872;37.462;2023-08-07T14:28:53;3.55;;;2.40;;
66384;SDS011;53426;55.872;37.462;2023-08-07T14:31:19;4.30;;;2.08;;
66384;SDS011;53426;55.872;37.462;2023-08-07T14:33:45;4.15;;;1.85;;
66384;SDS011;53426;55.872;37.462;2023-08-07T14:36:19;4.28;;;2.40;;
66384;SDS011;53426;55.872;37.462;2023-08-07T14:38:45;3.88;;;2.30;;
66384;SDS011;53426;55.872;37.462;2023-08-07T14:41:11;4.95;;;2.17;;
66384;SDS011;53426;55.872;37.462;2023-08-07T14:43:37;3.60;;;2.30;;
66384;SDS011;53426;55.872;37.462;2023-08-07T14:46:03;4.72;;;2.30;;
66384;SDS011;53426;55.872;37.462;2023-08-07T14:48:28;3.80;;;2.30;;
66384;SDS011;53426;55.872;37.462;2023-08-07T14:50:54;4.68;;;2.30;;
66384;SDS011;53426;55.872;37.462;2023-08-07T14:53:21;15.57;;;2.42;;
66384;SDS011;53426;55.872;37.462;2023-08-07T14:55:48;4.53;;;2.30;;
66384;SDS011;53426;55.872;37.462;2023-08-07T14:58:14;8.68;;;2.53;;
66384;SDS011;53426;55.872;37.462;2023-08-07T15:00:39;5.70;;;2.47;;
66384;SDS011;53426;55.872;37.462;2023-08-07T15:03:06;2.83;;;2.28;;
66384;SDS011;53426;55.872;37.462;2023-08-07T15:05:34;7.63;;;2.42;;
66384;SDS011;53426;55.872;37.462;2023-08-07T15:08:01;8.75;;;2.45;;
66384;SDS011;53426;55.872;37.462;2023-08-07T15:10:27;8.90;;;2.58;;
66384;SDS011;53426;55.872;37.462;2023-08-07T15:12:54;4.68;;;2.55;;
66384;SDS011;53426;55.872;37.462;2023-08-07T15:15:21;7.15;;;2.63;;
66384;SDS011;53426;55.872;37.462;2023-08-07T15:17:48;4.22;;;2.33;;
66384;SDS011;53426;55.872;37.462;2023-08-07T15:20:14;8.20;;;2.40;;
66384;SDS011;53426;55.872;37.462;2023-08-07T15:22:40;9.02;;;2.40;;
66384;SDS011;53426;55.872;37.462;2023-08-07T15:25:09;4.07;;;2.53;;
66384;SDS011;53426;55.872;37.462;2023-08-07T15:27:38;6.03;;;2.40;;
66384;SDS011;53426;55.872;37.462;2023-08-07T15:30:04;4.35;;;2.50;;
66384;SDS011;53426;55.872;37.462;2023-08-07T15:32:35;5.82;;;2.55;;
66384;SDS011;53426;55.872;37.462;2023-08-07T15:35:06;3.70;;;2.50;;
66384;SDS011;53426;55.872;37.462;2023-08-07T15:37:36;6.40;;;2.50;;
66384;SDS011;53426;55.872;37.462;2023-08-07T15:40:07;5.40;;;2.60;;
66384;SDS011;53426;55.872;37.462;2023-08-07T15:42:36;7.28;;;2.63;;
66384;SDS011;53426;55.872;37.462;2023-08-07T15:45:02;4.97;;;2.40;;
66384;SDS011;53426;55.872;37.462;2023-08-07T15:47:30;5.28;;;2.35;;
66384;SDS011;53426;55.872;37.462;2023-08-07T15:49:56;8.45;;;2.65;;
66384;SDS011;53426;55.872;37.462;2023-08-07T15:52:22;9.10;;;2.80;;
66384;SDS011;53426;55.872;37.462;2023-08-07T15:54:51;8.05;;;2.60;;
66384;SDS011;53426;55.872;37.462;2023-08-07T15:57:17;4.93;;;2.40;;
66384;SDS011;53426;55.872;37.462;2023-08-07T15:59:43;3.15;;;2.75;;
66384;SDS011;53426;55.872;37.462;2023-08-07T16:02:10;2.58;;;2.38;;
66384;SDS011;53426;55.872;37.462;2023-08-07T16:04:39;2.40;;;2.20;;
66384;SDS011;53426;55.872;37.462;2023-08-07T16:07:08;4.20;;;2.63;;
66384;SDS011;53426;55.872;37.462;2023-08-07T16:09:34;3.67;;;2.80;;
66384;SDS011;53426;55.872;37.462;2023-08-07T16:12:00;5.47;;;2.60;;